createdAt,value
2022-09-28T00:01:27.104Z,99428.31
2022-09-28T00:03:59.836Z,99432.34
2022-09-28T00:06:30.527Z,99441.59
2022-09-28T00:08:59.198Z,99439.78
2022-09-28T00:11:29.097Z,99436.19
2022-09-28T00:14:03.331Z,99421.44
2022-09-28T00:16:34.932Z,99429.75
2022-09-28T00:19:04.786Z,99424.03
2022-09-28T00:21:36.352Z,99428.94
2022-09-28T00:24:12.813Z,99429.78
2022-09-28T00:27:00.605Z,99433.03
2022-09-28T00:29:31.650Z,99423.22
2022-09-28T00:32:05.096Z,99422.16
2022-09-28T00:34:40.603Z,99421.78
2022-09-28T00:37:10.096Z,99415.16
2022-09-28T00:39:41.265Z,99420.88
2022-09-28T00:42:23.702Z,99412.88
2022-09-28T00:44:51.989Z,99422.13
2022-09-28T00:47:40.509Z,99415.97
2022-09-28T00:50:21.896Z,99413.88
2022-09-28T00:52:58.197Z,99408.81
2022-09-28T00:55:40.573Z,99406.59
2022-09-28T00:58:11.623Z,99415.41
2022-09-28T01:00:41.020Z,99416.00
2022-09-28T01:03:10.184Z,99406.00
2022-09-28T01:05:39.786Z,99406.16
2022-09-28T01:08:09.974Z,99406.47
2022-09-28T01:10:39.391Z,99402.47
2022-09-28T01:13:07.884Z,99401.25
2022-09-28T01:15:46.712Z,99392.13
2022-09-28T01:18:41.345Z,99396.63
2022-09-28T01:21:21.149Z,99397.94
2022-09-28T01:24:09.636Z,99398.56
2022-09-28T01:27:17.089Z,99396.72
2022-09-28T01:30:03.537Z,99397.72
2022-09-28T01:32:44.064Z,99405.69
2022-09-28T01:35:27.878Z,99404.50
2022-09-28T01:38:04.711Z,99406.56
2022-09-28T01:40:35.393Z,99405.88
2022-09-28T01:43:09.455Z,99406.38
2022-09-28T01:45:45.691Z,99401.75
2022-09-28T01:48:20.313Z,99412.69
2022-09-28T01:50:53.797Z,99411.41
2022-09-28T01:53:43.249Z,99415.00
2022-09-28T01:56:19.169Z,99402.13
2022-09-28T01:59:06.081Z,99413.31
2022-09-28T02:01:40.953Z,99413.00
2022-09-28T02:04:17.908Z,99403.16
2022-09-28T02:06:51.861Z,99408.91
2022-09-28T02:09:37.337Z,99401.56
2022-09-28T02:12:23.009Z,99397.97
2022-09-28T02:14:55.598Z,99400.19
2022-09-28T02:17:23.998Z,99402.34
2022-09-28T02:19:52.328Z,99404.47
2022-09-28T02:22:37.222Z,99405.16
2022-09-28T02:25:28.178Z,99406.91
2022-09-28T02:28:05.032Z,99405.91
2022-09-28T02:30:37.409Z,99404.69
2022-09-28T02:33:19.857Z,99407.53
2022-09-28T02:35:48.755Z,99404.69
2022-09-28T02:38:17.096Z,99415.72
2022-09-28T02:41:02.493Z,99402.63
2022-09-28T02:44:08.661Z,99402.34
2022-09-28T02:46:55.853Z,99399.72
2022-09-28T02:49:51.993Z,99409.59
2022-09-28T02:52:29.704Z,99409.16
2022-09-28T02:55:03.723Z,99410.78
2022-09-28T02:57:47.950Z,99418.59
2022-09-28T03:00:22.818Z,99414.31
2022-09-28T03:02:51.141Z,99423.19
2022-09-28T03:05:41.395Z,99412.78
2022-09-28T03:08:24.983Z,99416.25
2022-09-28T03:11:02.497Z,99422.19
2022-09-28T03:13:31.881Z,99419.56
2022-09-28T03:16:15.412Z,99418.22
2022-09-28T03:18:44.629Z,99417.97
2022-09-28T03:21:14.465Z,99422.75
2022-09-28T03:23:43.438Z,99426.63
2022-09-28T03:26:12.681Z,99423.75
2022-09-28T03:28:41.230Z,99424.72
2022-09-28T03:31:09.685Z,99425.94
2022-09-28T03:33:38.244Z,99424.03
2022-09-28T03:36:08.682Z,99418.50
2022-09-28T03:38:37.112Z,99412.03
2022-09-28T03:41:05.650Z,99416.66
2022-09-28T03:43:34.023Z,99417.28
2022-09-28T03:46:03.043Z,99416.22
2022-09-28T03:48:34.940Z,99416.34
2022-09-28T03:51:05.539Z,99421.34
2022-09-28T03:53:33.921Z,99418.63
2022-09-28T03:56:05.593Z,99423.41
2022-09-28T03:58:34.431Z,99421.00
2022-09-28T04:01:05.631Z,99411.91
2022-09-28T04:03:34.051Z,99428.06
2022-09-28T04:06:02.478Z,99425.91
2022-09-28T04:08:31.092Z,99416.38
2022-09-28T04:11:00.762Z,99416.56
2022-09-28T04:13:30.244Z,99423.06
2022-09-28T04:16:00.989Z,99421.81
2022-09-28T04:18:29.638Z,99420.31
2022-09-28T04:21:06.854Z,99415.06
2022-09-28T04:23:37.192Z,99420.03
2022-09-28T04:26:07.850Z,99424.84
2022-09-28T04:28:54.913Z,99421.56
2022-09-28T04:31:23.778Z,99419.25
2022-09-28T04:33:52.168Z,99416.38
2022-09-28T04:36:20.657Z,99412.28
2022-09-28T04:38:53.279Z,99412.78
2022-09-28T04:41:22.556Z,99420.19
2022-09-28T04:43:51.088Z,99422.41
2022-09-28T04:46:20.247Z,99416.63
2022-09-28T04:48:48.740Z,99415.53
2022-09-28T04:51:19.122Z,99424.00
2022-09-28T04:53:47.535Z,99418.53
2022-09-28T04:56:17.462Z,99419.56
2022-09-28T04:58:50.338Z,99414.41
2022-09-28T05:01:23.737Z,99421.44
2022-09-28T05:03:52.433Z,99427.88
2022-09-28T05:06:22.660Z,99427.47
2022-09-28T05:08:51.849Z,99425.41
2022-09-28T05:11:21.566Z,99423.03
2022-09-28T05:13:50.392Z,99428.34
2022-09-28T05:16:20.383Z,99428.34
2022-09-28T05:18:48.875Z,99426.72
2022-09-28T05:21:19.628Z,99441.19
2022-09-28T05:23:48.095Z,99431.50
2022-09-28T05:26:16.648Z,99434.38
2022-09-28T05:28:45.068Z,99436.63
2022-09-28T05:31:13.878Z,99440.78
2022-09-28T05:33:42.394Z,99441.13
2022-09-28T05:36:11.205Z,99433.63
2022-09-28T05:38:39.648Z,99444.44
2022-09-28T05:41:08.090Z,99433.47
2022-09-28T05:43:36.887Z,99437.44
2022-09-28T05:46:06.461Z,99431.25
2022-09-28T05:48:35.110Z,99437.03
2022-09-28T05:51:03.620Z,99437.25
2022-09-28T05:53:32.108Z,99432.25
2022-09-28T05:56:00.664Z,99434.47
2022-09-28T05:58:29.379Z,99442.34
2022-09-28T06:00:58.506Z,99445.00
2022-09-28T06:03:28.366Z,99447.56
2022-09-28T06:05:56.828Z,99451.44
2022-09-28T06:08:25.293Z,99445.63
2022-09-28T06:10:53.720Z,99442.53
2022-09-28T06:13:22.078Z,99447.75
2022-09-28T06:15:50.528Z,99453.97
2022-09-28T06:18:19.197Z,99456.03
2022-09-28T06:20:47.613Z,99455.63
2022-09-28T06:23:16.177Z,99470.09
2022-09-28T06:25:44.594Z,99464.69
2022-09-28T06:28:14.794Z,99469.28
2022-09-28T06:30:44.044Z,99465.75
2022-09-28T06:33:14.380Z,99470.66
2022-09-28T06:35:42.967Z,99473.59
2022-09-28T06:38:11.776Z,99475.22
2022-09-28T06:40:40.255Z,99469.19
2022-09-28T06:43:15.057Z,99474.88
2022-09-28T06:45:43.827Z,99478.59
2022-09-28T06:48:12.318Z,99486.44
2022-09-28T06:50:41.298Z,99479.41
2022-09-28T06:53:12.840Z,99488.44
2022-09-28T06:55:43.257Z,99478.94
2022-09-28T06:58:14.330Z,99483.91
2022-09-28T07:00:43.404Z,99483.09
2022-09-28T07:03:14.769Z,99492.31
2022-09-28T07:05:49.837Z,99498.25
2022-09-28T07:08:18.239Z,99492.94
2022-09-28T07:10:48.785Z,99494.09
2022-09-28T07:13:45.007Z,99506.91
2022-09-28T07:16:06.278Z,99503.03
2022-09-28T07:18:34.601Z,99505.44
2022-09-28T07:21:04.075Z,99502.16
2022-09-28T07:23:34.529Z,99497.75
2022-09-28T07:26:09.247Z,99501.13
2022-09-28T07:28:41.386Z,99502.78
2022-09-28T07:31:11.851Z,99512.78
2022-09-28T07:33:41.376Z,99510.03
2022-09-28T07:36:10.618Z,99507.28
2022-09-28T07:38:41.134Z,99510.44
2022-09-28T07:41:12.420Z,99524.72
2022-09-28T07:43:41.879Z,99506.47
2022-09-28T07:46:12.278Z,99511.44
2022-09-28T07:48:42.687Z,99516.63
2022-09-28T07:51:11.187Z,99519.38
2022-09-28T07:53:39.693Z,99520.03
2022-09-28T07:56:09.354Z,99520.59
2022-09-28T07:58:39.238Z,99531.81
2022-09-28T08:01:10.677Z,99530.78
2022-09-28T08:03:39.428Z,99526.25
2022-09-28T08:06:11.125Z,99535.53
2022-09-28T08:08:44.828Z,99537.31
2022-09-28T08:11:16.540Z,99535.69
2022-09-28T08:13:46.466Z,99539.75
2022-09-28T08:16:14.994Z,99536.94
2022-09-28T08:18:43.471Z,99535.97
2022-09-28T08:21:30.504Z,99530.41
2022-09-28T08:23:58.911Z,99536.78
2022-09-28T08:26:28.896Z,99533.28
2022-09-28T08:28:57.259Z,99543.63
2022-09-28T08:31:27.269Z,99539.91
2022-09-28T08:33:57.427Z,99542.38
2022-09-28T08:36:25.848Z,99548.56
2022-09-28T08:38:55.197Z,99556.13
2022-09-28T08:41:56.820Z,99554.59
2022-09-28T08:44:30.328Z,99555.06
2022-09-28T08:47:03.218Z,99557.66
2022-09-28T08:49:37.163Z,99564.25
2022-09-28T08:52:18.716Z,99561.09
2022-09-28T08:54:50.155Z,99564.88
2022-09-28T08:57:33.700Z,99572.00
2022-09-28T09:00:09.503Z,99567.75
2022-09-28T09:02:42.230Z,99581.63
2022-09-28T09:05:15.076Z,99581.53
2022-09-28T09:07:55.068Z,99577.69
2022-09-28T09:10:47.526Z,99590.25
2022-09-28T09:13:42.048Z,99583.13
2022-09-28T09:16:33.031Z,99580.63
2022-09-28T09:19:35.766Z,99584.53
2022-09-28T09:22:17.899Z,99587.41
2022-09-28T09:24:51.593Z,99595.50
2022-09-28T09:27:36.762Z,99597.34
2022-09-28T09:30:08.350Z,99599.50
2022-09-28T09:32:58.382Z,99602.34
2022-09-28T09:35:52.295Z,99594.78
2022-09-28T09:38:27.779Z,99603.84
2022-09-28T09:41:11.518Z,99609.50
2022-09-28T09:43:39.896Z,99606.28
2022-09-28T09:46:30.390Z,99609.34
2022-09-28T09:49:08.849Z,99608.19
2022-09-28T09:52:06.246Z,99603.56
2022-09-28T09:54:37.669Z,99609.00
2022-09-28T09:57:13.563Z,99609.50
2022-09-28T09:59:44.413Z,99616.94
2022-09-28T10:02:26.062Z,99603.13
2022-09-28T10:05:27.676Z,99600.91
2022-09-28T10:08:23.707Z,99619.16
2022-09-28T10:10:56.354Z,99606.91
2022-09-28T10:13:24.852Z,99610.19
2022-09-28T10:15:53.288Z,99613.25
2022-09-28T10:18:21.761Z,99608.47
2022-09-28T10:20:50.189Z,99613.22
2022-09-28T10:23:30.296Z,99607.13
2022-09-28T10:26:04.234Z,99603.25
2022-09-28T10:28:47.385Z,99602.66
2022-09-28T10:31:42.191Z,99605.97
2022-09-28T10:34:17.290Z,99606.84
2022-09-28T10:37:00.676Z,99608.75
2022-09-28T10:39:33.228Z,99607.59
2022-09-28T10:42:06.185Z,99611.34
2022-09-28T10:44:50.536Z,99601.41
2022-09-28T10:47:22.145Z,99600.84
2022-09-28T10:49:53.567Z,99594.31
2022-09-28T10:52:32.863Z,99587.63
2022-09-28T10:55:02.452Z,99607.63
2022-09-28T10:57:36.568Z,99607.22
2022-09-28T11:00:07.332Z,99601.56
2022-09-28T11:02:38.418Z,99603.06
2022-09-28T11:05:19.863Z,99597.28
2022-09-28T11:07:48.608Z,99604.91
2022-09-28T11:10:22.815Z,99610.66
2022-09-28T11:12:52.219Z,99607.28
2022-09-28T11:15:25.913Z,99600.06
2022-09-28T11:17:54.585Z,99616.22
2022-09-28T11:20:28.337Z,99605.47
2022-09-28T11:23:16.731Z,99602.06
2022-09-28T11:26:05.950Z,99602.19
2022-09-28T11:28:37.478Z,99608.31
2022-09-28T11:31:08.235Z,99601.63
2022-09-28T11:33:40.258Z,99598.91
2022-09-28T11:36:08.609Z,99597.44
2022-09-28T11:38:58.901Z,99596.41
2022-09-28T11:41:49.188Z,99605.31
2022-09-28T11:44:37.031Z,99591.59
2022-09-28T11:47:35.613Z,99605.41
2022-09-28T11:50:12.821Z,99606.06
2022-09-28T11:52:59.747Z,99597.19
2022-09-28T11:55:34.385Z,99592.75
2022-09-28T11:58:15.249Z,99593.72
2022-09-28T12:00:50.563Z,99604.66
2022-09-28T12:03:39.586Z,99601.69
2022-09-28T12:06:16.191Z,99592.75
2022-09-28T12:08:54.072Z,99601.94
2022-09-28T12:11:33.916Z,99601.28
2022-09-28T12:14:06.957Z,99592.56
2022-09-28T12:17:04.819Z,99595.78
2022-09-28T12:19:55.347Z,99601.03
2022-09-28T12:22:28.235Z,99591.06
2022-09-28T12:24:58.444Z,99598.66
2022-09-28T12:27:38.520Z,99585.00
2022-09-28T12:30:27.228Z,99593.09
2022-09-28T12:33:05.049Z,99599.00
2022-09-28T12:35:55.450Z,99600.19
2022-09-28T12:38:42.474Z,99602.91
2022-09-28T12:41:42.388Z,99589.78
2022-09-28T12:44:13.741Z,99591.09
2022-09-28T12:47:16.480Z,99587.88
2022-09-28T12:50:37.522Z,99586.53
2022-09-28T12:53:24.023Z,99583.13
2022-09-28T12:56:24.489Z,99594.78
2022-09-28T12:59:05.602Z,99592.06
2022-09-28T13:02:14.795Z,99590.19
2022-09-28T13:05:16.043Z,99590.28
2022-09-28T13:07:49.916Z,99585.03
2022-09-28T13:10:26.832Z,99604.06
2022-09-28T13:13:24.769Z,99601.91
2022-09-28T13:15:56.648Z,99603.13
2022-09-28T13:18:42.165Z,99592.97
2022-09-28T13:21:26.705Z,99593.38
2022-09-28T13:24:09.056Z,99607.38
2022-09-28T13:26:49.333Z,99610.31
2022-09-28T13:29:20.339Z,99610.22
2022-09-28T13:31:52.973Z,99610.94
2022-09-28T13:34:24.893Z,99617.72
2022-09-28T13:37:19.784Z,99612.28
2022-09-28T13:39:52.493Z,99596.75
2022-09-28T13:42:29.346Z,99597.03
2022-09-28T13:45:18.153Z,99595.44
2022-09-28T13:47:56.649Z,99598.84
2022-09-28T13:51:02.505Z,99594.19
2022-09-28T13:53:40.148Z,99599.72
2022-09-28T13:56:30.412Z,99606.16
2022-09-28T13:59:17.564Z,99607.53
2022-09-28T14:02:27.902Z,99607.53
2022-09-28T14:05:01.981Z,99618.13
2022-09-28T14:07:33.460Z,99616.56
2022-09-28T14:10:20.955Z,99617.75
2022-09-28T14:12:54.047Z,99617.00
2022-09-28T14:15:28.627Z,99615.34
2022-09-28T14:18:31.916Z,99614.91
2022-09-28T14:21:21.548Z,99614.06
2022-09-28T14:24:13.743Z,99609.75
2022-09-28T14:27:20.749Z,99613.50
2022-09-28T14:30:05.135Z,99606.47
2022-09-28T14:32:37.341Z,99613.00
2022-09-28T14:35:07.451Z,99613.25
2022-09-28T14:38:00.415Z,99604.44
2022-09-28T14:40:51.357Z,99607.56
2022-09-28T14:43:27.893Z,99616.34
2022-09-28T14:46:25.592Z,99621.06
2022-09-28T14:49:04.079Z,99613.69
2022-09-28T14:51:37.840Z,99613.28
2022-09-28T14:54:17.509Z,99617.00
2022-09-28T14:56:51.967Z,99620.34
2022-09-28T14:59:26.866Z,99616.03
2022-09-28T15:02:10.468Z,99615.50
2022-09-28T15:05:07.262Z,99621.97
2022-09-28T15:07:49.597Z,99624.94
2022-09-28T15:10:25.281Z,99628.41
2022-09-28T15:12:57.051Z,99636.44
2022-09-28T15:15:35.275Z,99635.69
2022-09-28T15:18:33.217Z,99635.53
2022-09-28T15:21:02.811Z,99639.94
2022-09-28T15:23:37.427Z,99643.66
2022-09-28T15:26:18.384Z,99635.63
2022-09-28T15:28:46.804Z,99649.53
2022-09-28T15:31:23.092Z,99649.06
2022-09-28T15:34:10.605Z,99649.16
2022-09-28T15:36:46.424Z,99652.72
2022-09-28T15:39:48.302Z,99654.03
2022-09-28T15:42:18.330Z,99655.19
2022-09-28T15:45:06.050Z,99667.59
2022-09-28T15:47:35.184Z,99666.19
2022-09-28T15:50:09.146Z,99671.38
2022-09-28T15:52:47.060Z,99660.94
2022-09-28T15:55:31.899Z,99671.38
2022-09-28T15:58:12.526Z,99672.53
2022-09-28T16:00:42.240Z,99668.75
2022-09-28T16:03:10.635Z,99684.16
2022-09-28T16:05:57.533Z,99680.88
2022-09-28T16:08:44.840Z,99683.81
2022-09-28T16:11:23.857Z,99670.63
2022-09-28T16:14:07.220Z,99690.06
2022-09-28T16:16:46.641Z,99682.53
2022-09-28T16:19:31.268Z,99683.16
2022-09-28T16:22:03.878Z,99683.22
2022-09-28T16:24:37.167Z,99675.59
2022-09-28T16:27:21.922Z,99678.06
2022-09-28T16:30:12.576Z,99687.72
2022-09-28T16:33:03.483Z,99682.63
2022-09-28T16:35:52.696Z,99695.72
2022-09-28T16:38:21.432Z,99691.47
2022-09-28T16:40:54.753Z,99679.47
2022-09-28T16:43:28.553Z,99682.09
2022-09-28T16:46:02.817Z,99689.97
2022-09-28T16:48:34.321Z,99678.38
2022-09-28T16:51:02.792Z,99685.25
2022-09-28T16:53:49.603Z,99690.78
2022-09-28T16:56:18.486Z,99693.00
2022-09-28T16:58:49.405Z,99694.91
2022-09-28T17:01:17.980Z,99694.03
2022-09-28T17:03:50.022Z,99702.19
2022-09-28T17:06:20.529Z,99705.72
2022-09-28T17:08:48.948Z,99699.16
2022-09-28T17:11:24.009Z,99699.75
2022-09-28T17:13:56.803Z,99702.81
2022-09-28T17:16:49.795Z,99707.53
2022-09-28T17:19:24.868Z,99712.44
2022-09-28T17:21:54.234Z,99711.06
2022-09-28T17:24:22.611Z,99708.59
2022-09-28T17:26:52.006Z,99713.06
2022-09-28T17:29:20.495Z,99716.84
2022-09-28T17:31:48.905Z,99715.44
2022-09-28T17:34:17.413Z,99716.84
2022-09-28T17:36:46.399Z,99718.16
2022-09-28T17:39:17.432Z,99719.28
2022-09-28T17:41:46.387Z,99718.22
2022-09-28T17:44:16.117Z,99715.38
2022-09-28T17:46:48.543Z,99722.34
2022-09-28T17:49:17.299Z,99721.97
2022-09-28T17:51:45.679Z,99726.19
2022-09-28T17:54:16.885Z,99723.03
2022-09-28T17:56:46.089Z,99719.75
2022-09-28T17:59:17.585Z,99721.25
2022-09-28T18:01:46.122Z,99714.28
2022-09-28T18:04:39.837Z,99725.00
2022-09-28T18:07:04.496Z,99727.66
2022-09-28T18:09:32.870Z,99725.16
2022-09-28T18:12:04.488Z,99725.53
2022-09-28T18:14:32.917Z,99732.94
2022-09-28T18:17:01.679Z,99737.25
2022-09-28T18:19:32.305Z,99736.47
2022-09-28T18:22:01.740Z,99741.63
2022-09-28T18:24:32.308Z,99740.47
2022-09-28T18:27:00.787Z,99735.50
2022-09-28T18:29:33.063Z,99736.41
2022-09-28T18:32:02.216Z,99743.50
2022-09-28T18:34:30.635Z,99744.16
2022-09-28T18:36:59.079Z,99746.41
2022-09-28T18:39:27.544Z,99743.09
2022-09-28T18:41:56.003Z,99752.28
2022-09-28T18:44:24.487Z,99744.41
2022-09-28T18:46:53.005Z,99744.47
2022-09-28T18:49:21.987Z,99754.81
2022-09-28T18:51:50.487Z,99756.81
2022-09-28T18:54:18.902Z,99754.31
2022-09-28T18:56:47.596Z,99754.19
2022-09-28T18:59:16.180Z,99747.47
2022-09-28T19:01:45.026Z,99752.28
2022-09-28T19:04:13.546Z,99752.28
2022-09-28T19:06:44.381Z,99749.59
2022-09-28T19:09:13.076Z,99747.19
2022-09-28T19:11:42.755Z,99754.53
2022-09-28T19:14:14.844Z,99747.31
2022-09-28T19:16:44.385Z,99748.53
2022-09-28T19:19:14.694Z,99750.34
2022-09-28T19:21:43.465Z,99741.19
2022-09-28T19:24:16.679Z,99748.75
2022-09-28T19:26:46.508Z,99748.81
2022-09-28T19:29:15.619Z,99750.53
2022-09-28T19:31:44.024Z,99746.19
2022-09-28T19:34:14.236Z,99757.81
2022-09-28T19:36:43.156Z,99755.19
2022-09-28T19:39:15.023Z,99756.22
2022-09-28T19:41:47.764Z,99755.00
2022-09-28T19:44:25.458Z,99757.91
2022-09-28T19:46:55.357Z,99757.34
2022-09-28T19:49:26.315Z,99766.91
2022-09-28T19:52:14.177Z,99759.03
2022-09-28T19:54:44.438Z,99755.75
2022-09-28T19:57:15.589Z,99757.03
2022-09-28T19:59:44.274Z,99767.41
2022-09-28T20:02:14.000Z,99759.53
2022-09-28T20:04:42.373Z,99764.59
2022-09-28T20:07:10.873Z,99768.31
2022-09-28T20:09:39.311Z,99764.59
2022-09-28T20:12:08.102Z,99773.25
2022-09-28T20:14:39.647Z,99774.94
2022-09-28T20:17:09.554Z,99782.44
2022-09-28T20:19:38.066Z,99775.38
2022-09-28T20:22:06.477Z,99774.81
2022-09-28T20:24:34.819Z,99774.72
2022-09-28T20:27:03.333Z,99782.22
2022-09-28T20:29:33.033Z,99780.72
2022-09-28T20:32:02.003Z,99776.09
2022-09-28T20:34:30.347Z,99784.16
2022-09-28T20:36:58.704Z,99776.31
2022-09-28T20:39:27.052Z,99777.78
2022-09-28T20:41:57.319Z,99778.97
2022-09-28T20:44:25.704Z,99785.41
2022-09-28T20:46:54.153Z,99775.75
2022-09-28T20:49:22.617Z,99780.69
2022-09-28T20:51:50.999Z,99771.66
2022-09-28T20:54:20.849Z,99771.22
2022-09-28T20:56:49.289Z,99774.75
2022-09-28T20:59:17.679Z,99780.47
2022-09-28T21:01:46.106Z,99772.94
2022-09-28T21:04:14.654Z,99774.41
2022-09-28T21:06:43.316Z,99771.94
2022-09-28T21:09:12.318Z,99772.22
2022-09-28T21:11:41.424Z,99780.69
2022-09-28T21:14:10.307Z,99777.41
2022-09-28T21:16:38.989Z,99773.41
2022-09-28T21:19:07.366Z,99774.19
2022-09-28T21:21:35.763Z,99773.22
2022-09-28T21:24:04.429Z,99769.47
2022-09-28T21:26:33.341Z,99773.00
2022-09-28T21:29:04.250Z,99776.25
2022-09-28T21:31:38.963Z,99775.81
2022-09-28T21:34:13.243Z,99778.84
2022-09-28T21:36:43.273Z,99780.69
2022-09-28T21:39:11.755Z,99771.38
2022-09-28T21:41:40.951Z,99777.59
2022-09-28T21:44:09.961Z,99781.59
2022-09-28T21:46:38.792Z,99777.88
2022-09-28T21:49:08.076Z,99780.00
2022-09-28T21:51:37.513Z,99790.69
2022-09-28T21:54:06.052Z,99781.63
2022-09-28T21:56:34.364Z,99783.25
2022-09-28T21:59:02.965Z,99792.94
2022-09-28T22:01:31.682Z,99793.09
2022-09-28T22:04:00.328Z,99801.59
2022-09-28T22:06:28.870Z,99802.03
2022-09-28T22:08:57.508Z,99808.47
2022-09-28T22:11:28.159Z,99808.06
2022-09-28T22:13:58.985Z,99811.19
2022-09-28T22:16:29.957Z,99802.06
2022-09-28T22:18:59.564Z,99812.81
2022-09-28T22:21:31.697Z,99811.03
2022-09-28T22:24:01.080Z,99807.06
2022-09-28T22:26:31.766Z,99813.31
2022-09-28T22:29:03.507Z,99818.69
2022-09-28T22:31:40.478Z,99813.25
2022-09-28T22:34:09.398Z,99818.03
2022-09-28T22:36:37.846Z,99809.97
2022-09-28T22:39:06.346Z,99817.84
2022-09-28T22:41:35.498Z,99812.25
2022-09-28T22:44:03.963Z,99811.66
2022-09-28T22:46:32.454Z,99812.28
2022-09-28T22:49:00.980Z,99819.28
2022-09-28T22:51:30.868Z,99814.09
2022-09-28T22:53:59.434Z,99821.38
2022-09-28T22:56:28.358Z,99818.25
2022-09-28T22:58:57.020Z,99819.91
2022-09-28T23:01:29.930Z,99814.09
2022-09-28T23:03:58.670Z,99828.88
2022-09-28T23:06:30.165Z,99823.25
2022-09-28T23:08:59.239Z,99829.25
2022-09-28T23:11:28.716Z,99818.50
2022-09-28T23:13:58.848Z,99826.63
2022-09-28T23:16:27.629Z,99818.72
2022-09-28T23:18:56.473Z,99807.72
2022-09-28T23:21:26.783Z,99809.78
2022-09-28T23:24:03.296Z,99809.56
2022-09-28T23:26:33.123Z,99814.56
2022-09-28T23:29:01.497Z,99813.72
2022-09-28T23:31:31.715Z,99811.03
2022-09-28T23:34:02.367Z,99811.66
2022-09-28T23:36:31.357Z,99816.22
2022-09-28T23:38:59.928Z,99815.19
2022-09-28T23:41:28.446Z,99824.31
2022-09-28T23:43:56.853Z,99825.94
2022-09-28T23:46:25.367Z,99812.50
2022-09-28T23:48:53.990Z,99814.78
2022-09-28T23:51:22.366Z,99823.69
2022-09-28T23:53:50.713Z,99807.75
2022-09-28T23:56:19.114Z,99810.44
2022-09-28T23:58:47.478Z,99817.06
